sensor_id;sensor_type;location;lat;lon;timestamp;temperature;humidity
40952;DHT22;26682;51.660;19.338;2023-12-20T00:02:12;5.30;99.90
40952;DHT22;26682;51.660;19.338;2023-12-20T00:04:55;5.30;99.90
40952;DHT22;26682;51.660;19.338;2023-12-20T00:07:37;5.30;99.90
40952;DHT22;26682;51.660;19.338;2023-12-20T00:10:20;5.30;99.90
40952;DHT22;26682;51.660;19.338;2023-12-20T00:13:02;5.30;99.90
40952;DHT22;26682;51.660;19.338;2023-12-20T00:15:45;5.30;99.90
40952;DHT22;26682;51.660;19.338;2023-12-20T00:18:27;5.40;99.90
40952;DHT22;26682;51.660;19.338;2023-12-20T00:21:10;5.40;99.90
40952;DHT22;26682;51.660;19.338;2023-12-20T00:23:52;5.40;99.90
40952;DHT22;26682;51.660;19.338;2023-12-20T00:26:34;5.40;99.90
40952;DHT22;26682;51.660;19.338;2023-12-20T00:29:16;5.40;99.90
40952;DHT22;26682;51.660;19.338;2023-12-20T00:31:59;5.40;99.90
40952;DHT22;26682;51.660;19.338;2023-12-20T00:34:43;5.40;99.90
40952;DHT22;26682;51.660;19.338;2023-12-20T00:37:25;5.40;99.90
40952;DHT22;26682;51.660;19.338;2023-12-20T00:40:08;5.40;99.90
40952;DHT22;26682;51.660;19.338;2023-12-20T00:42:51;5.40;99.90
40952;DHT22;26682;51.660;19.338;2023-12-20T00:45:33;5.40;99.90
40952;DHT22;26682;51.660;19.338;2023-12-20T00:48:16;5.50;99.90
40952;DHT22;26682;51.660;19.338;2023-12-20T00:50:59;5.50;99.90
40952;DHT22;26682;51.660;19.338;2023-12-20T00:53:41;5.50;99.90
40952;DHT22;26682;51.660;19.338;2023-12-20T00:56:23;5.50;99.90
40952;DHT22;26682;51.660;19.338;2023-12-20T00:59:06;5.50;99.90
40952;DHT22;26682;51.660;19.338;2023-12-20T01:01:48;5.50;99.90
40952;DHT22;26682;51.660;19.338;2023-12-20T01:04:31;5.50;99.90
40952;DHT22;26682;51.660;19.338;2023-12-20T01:07:13;5.50;99.90
40952;DHT22;26682;51.660;19.338;2023-12-20T01:09:56;5.50;99.90
40952;DHT22;26682;51.660;19.338;2023-12-20T01:12:38;5.60;99.90
40952;DHT22;26682;51.660;19.338;2023-12-20T01:15:21;5.50;99.90
40952;DHT22;26682;51.660;19.338;2023-12-20T01:18:03;5.50;99.90
40952;DHT22;26682;51.660;19.338;2023-12-20T01:20:46;5.50;99.90
40952;DHT22;26682;51.660;19.338;2023-12-20T01:23:33;5.60;99.90
40952;DHT22;26682;51.660;19.338;2023-12-20T01:26:15;5.60;99.90
40952;DHT22;26682;51.660;19.338;2023-12-20T01:28:58;5.60;99.90
40952;DHT22;26682;51.660;19.338;2023-12-20T01:31:41;5.60;99.90
40952;DHT22;26682;51.660;19.338;2023-12-20T01:34:24;5.60;99.90
40952;DHT22;26682;51.660;19.338;2023-12-20T01:37:06;5.60;99.90
40952;DHT22;26682;51.660;19.338;2023-12-20T01:39:49;5.60;99.90
40952;DHT22;26682;51.660;19.338;2023-12-20T01:42:31;5.60;99.90
40952;DHT22;26682;51.660;19.338;2023-12-20T01:45:13;5.60;99.90
40952;DHT22;26682;51.660;19.338;2023-12-20T01:47:58;5.60;99.90
40952;DHT22;26682;51.660;19.338;2023-12-20T01:50:42;5.60;99.90
40952;DHT22;26682;51.660;19.338;2023-12-20T01:53:27;5.60;99.90
40952;DHT22;26682;51.660;19.338;2023-12-20T01:56:11;5.60;99.90
40952;DHT22;26682;51.660;19.338;2023-12-20T01:58:55;5.60;99.90
40952;DHT22;26682;51.660;19.338;2023-12-20T02:01:38;5.60;99.90
40952;DHT22;26682;51.660;19.338;2023-12-20T02:04:20;5.60;99.90
40952;DHT22;26682;51.660;19.338;2023-12-20T02:07:03;5.60;99.90
40952;DHT22;26682;51.660;19.338;2023-12-20T02:09:46;5.60;99.90
40952;DHT22;26682;51.660;19.338;2023-12-20T02:12:29;5.60;99.90
40952;DHT22;26682;51.660;19.338;2023-12-20T02:15:11;5.60;99.90
40952;DHT22;26682;51.660;19.338;2023-12-20T02:17:54;5.60;99.90
40952;DHT22;26682;51.660;19.338;2023-12-20T02:20:37;5.60;99.90
40952;DHT22;26682;51.660;19.338;2023-12-20T02:23:19;5.60;99.90
40952;DHT22;26682;51.660;19.338;2023-12-20T02:26:03;5.60;99.90
40952;DHT22;26682;51.660;19.338;2023-12-20T02:28:46;5.60;99.90
40952;DHT22;26682;51.660;19.338;2023-12-20T02:31:29;5.60;99.90
40952;DHT22;26682;51.660;19.338;2023-12-20T02:34:11;5.60;99.90
40952;DHT22;26682;51.660;19.338;2023-12-20T02:36:54;5.60;99.90
40952;DHT22;26682;51.660;19.338;2023-12-20T02:39:36;5.70;99.90
40952;DHT22;26682;51.660;19.338;2023-12-20T02:42:18;5.70;99.90
40952;DHT22;26682;51.660;19.338;2023-12-20T02:45:01;5.70;99.90
40952;DHT22;26682;51.660;19.338;2023-12-20T02:47:43;5.70;99.90
40952;DHT22;26682;51.660;19.338;2023-12-20T02:50:26;5.70;99.90
40952;DHT22;26682;51.660;19.338;2023-12-20T02:53:08;5.70;99.90
40952;DHT22;26682;51.660;19.338;2023-12-20T02:55:51;5.70;99.90
40952;DHT22;26682;51.660;19.338;2023-12-20T02:58:34;5.60;99.90
40952;DHT22;26682;51.660;19.338;2023-12-20T03:01:16;5.70;99.90
40952;DHT22;26682;51.660;19.338;2023-12-20T03:03:59;5.60;99.90
40952;DHT22;26682;51.660;19.338;2023-12-20T03:06:41;5.60;99.90
40952;DHT22;26682;51.660;19.338;2023-12-20T03:09:23;5.70;99.90
40952;DHT22;26682;51.660;19.338;2023-12-20T03:12:06;5.60;99.90
40952;DHT22;26682;51.660;19.338;2023-12-20T03:14:48;5.60;99.90
40952;DHT22;26682;51.660;19.338;2023-12-20T03:17:31;5.60;99.90
40952;DHT22;26682;51.660;19.338;2023-12-20T03:20:14;5.60;99.90
40952;DHT22;26682;51.660;19.338;2023-12-20T03:22:56;5.60;99.90
40952;DHT22;26682;51.660;19.338;2023-12-20T03:25:39;5.60;99.90
40952;DHT22;26682;51.660;19.338;2023-12-20T03:28:21;5.60;99.90
40952;DHT22;26682;51.660;19.338;2023-12-20T03:31:03;5.60;99.90
40952;DHT22;26682;51.660;19.338;2023-12-20T03:33:46;5.60;99.90
40952;DHT22;26682;51.660;19.338;2023-12-20T03:36:28;5.60;99.90
40952;DHT22;26682;51.660;19.338;2023-12-20T03:39:11;5.60;99.90
40952;DHT22;26682;51.660;19.338;2023-12-20T03:41:53;5.60;99.90
40952;DHT22;26682;51.660;19.338;2023-12-20T03:44:38;5.60;99.90
40952;DHT22;26682;51.660;19.338;2023-12-20T03:47:21;5.60;99.90
40952;DHT22;26682;51.660;19.338;2023-12-20T03:50:04;5.60;99.90
40952;DHT22;26682;51.660;19.338;2023-12-20T03:52:46;5.60;99.90
40952;DHT22;26682;51.660;19.338;2023-12-20T03:55:28;5.60;99.90
40952;DHT22;26682;51.660;19.338;2023-12-20T03:58:11;5.60;99.90
40952;DHT22;26682;51.660;19.338;2023-12-20T04:00:53;5.50;99.90
40952;DHT22;26682;51.660;19.338;2023-12-20T04:03:36;5.60;99.90
40952;DHT22;26682;51.660;19.338;2023-12-20T04:06:18;5.50;99.90
40952;DHT22;26682;51.660;19.338;2023-12-20T04:09:01;5.50;99.90
40952;DHT22;26682;51.660;19.338;2023-12-20T04:11:44;5.50;99.90
40952;DHT22;26682;51.660;19.338;2023-12-20T04:14:26;5.50;99.90
40952;DHT22;26682;51.660;19.338;2023-12-20T04:17:08;5.50;99.90
40952;DHT22;26682;51.660;19.338;2023-12-20T04:19:51;5.50;99.90
40952;DHT22;26682;51.660;19.338;2023-12-20T04:22:34;5.50;99.90
40952;DHT22;26682;51.660;19.338;2023-12-20T04:25:16;5.50;99.90
40952;DHT22;26682;51.660;19.338;2023-12-20T04:27:59;5.50;99.90
40952;DHT22;26682;51.660;19.338;2023-12-20T04:30:42;5.40;99.90
40952;DHT22;26682;51.660;19.338;2023-12-20T04:33:24;5.40;99.90
40952;DHT22;26682;51.660;19.338;2023-12-20T04:36:07;5.40;99.90
40952;DHT22;26682;51.660;19.338;2023-12-20T04:38:51;5.40;99.90
40952;DHT22;26682;51.660;19.338;2023-12-20T04:41:33;5.40;99.90
40952;DHT22;26682;51.660;19.338;2023-12-20T04:44:15;5.40;99.90
40952;DHT22;26682;51.660;19.338;2023-12-20T04:46:58;5.40;99.90
40952;DHT22;26682;51.660;19.338;2023-12-20T04:49:40;5.40;99.90
40952;DHT22;26682;51.660;19.338;2023-12-20T04:52:23;5.40;99.90
40952;DHT22;26682;51.660;19.338;2023-12-20T04:55:05;5.30;99.90
40952;DHT22;26682;51.660;19.338;2023-12-20T04:57:48;5.30;99.90
40952;DHT22;26682;51.660;19.338;2023-12-20T05:00:31;5.30;99.90
40952;DHT22;26682;51.660;19.338;2023-12-20T05:03:13;5.30;99.90
40952;DHT22;26682;51.660;19.338;2023-12-20T05:05:56;5.30;99.90
40952;DHT22;26682;51.660;19.338;2023-12-20T05:08:38;5.20;99.90
40952;DHT22;26682;51.660;19.338;2023-12-20T05:11:21;5.20;99.90
40952;DHT22;26682;51.660;19.338;2023-12-20T05:14:03;5.20;99.90
40952;DHT22;26682;51.660;19.338;2023-12-20T05:16:46;5.20;99.90
40952;DHT22;26682;51.660;19.338;2023-12-20T05:19:28;5.20;99.90
40952;DHT22;26682;51.660;19.338;2023-12-20T05:22:11;5.20;99.90
40952;DHT22;26682;51.660;19.338;2023-12-20T05:24:54;5.20;99.90
40952;DHT22;26682;51.660;19.338;2023-12-20T05:27:36;5.20;99.90
40952;DHT22;26682;51.660;19.338;2023-12-20T05:30:19;5.10;99.90
40952;DHT22;26682;51.660;19.338;2023-12-20T05:33:01;5.10;99.90
40952;DHT22;26682;51.660;19.338;2023-12-20T05:35:44;5.10;99.90
40952;DHT22;26682;51.660;19.338;2023-12-20T05:38:26;5.10;99.90
40952;DHT22;26682;51.660;19.338;2023-12-20T05:41:09;5.10;99.90
40952;DHT22;26682;51.660;19.338;2023-12-20T05:43:51;5.10;99.90
40952;DHT22;26682;51.660;19.338;2023-12-20T05:46:34;5.10;99.90
40952;DHT22;26682;51.660;19.338;2023-12-20T05:49:16;5.10;99.90
40952;DHT22;26682;51.660;19.338;2023-12-20T05:51:58;5.10;99.90
40952;DHT22;26682;51.660;19.338;2023-12-20T05:54:41;5.10;99.90
40952;DHT22;26682;51.660;19.338;2023-12-20T05:57:24;5.10;99.90
40952;DHT22;26682;51.660;19.338;2023-12-20T06:00:07;5.10;99.90
40952;DHT22;26682;51.660;19.338;2023-12-20T06:02:55;5.00;99.90
40952;DHT22;26682;51.660;19.338;2023-12-20T06:05:38;5.00;99.90
40952;DHT22;26682;51.660;19.338;2023-12-20T06:08:20;5.00;99.90
40952;DHT22;26682;51.660;19.338;2023-12-20T06:11:02;5.00;99.90
40952;DHT22;26682;51.660;19.338;2023-12-20T06:13:45;5.00;99.90
40952;DHT22;26682;51.660;19.338;2023-12-20T06:16:27;5.00;99.90
40952;DHT22;26682;51.660;19.338;2023-12-20T06:19:10;5.00;99.90
40952;DHT22;26682;51.660;19.338;2023-12-20T06:21:53;5.00;99.90
40952;DHT22;26682;51.660;19.338;2023-12-20T06:24:36;5.00;99.90
40952;DHT22;26682;51.660;19.338;2023-12-20T06:27:18;5.00;99.90
40952;DHT22;26682;51.660;19.338;2023-12-20T06:30:01;5.00;99.90
40952;DHT22;26682;51.660;19.338;2023-12-20T06:32:43;5.00;99.90
40952;DHT22;26682;51.660;19.338;2023-12-20T06:35:25;5.00;99.90
40952;DHT22;26682;51.660;19.338;2023-12-20T06:38:08;4.90;99.90
40952;DHT22;26682;51.660;19.338;2023-12-20T06:40:51;4.90;99.90
40952;DHT22;26682;51.660;19.338;2023-12-20T06:43:34;4.90;99.90
40952;DHT22;26682;51.660;19.338;2023-12-20T06:46:31;4.90;99.90
40952;DHT22;26682;51.660;19.338;2023-12-20T06:49:14;4.90;99.90
40952;DHT22;26682;51.660;19.338;2023-12-20T06:51:56;4.90;99.90
40952;DHT22;26682;51.660;19.338;2023-12-20T06:54:39;4.90;99.90
40952;DHT22;26682;51.660;19.338;2023-12-20T06:57:21;4.90;99.90
40952;DHT22;26682;51.660;19.338;2023-12-20T07:00:04;5.00;99.90
40952;DHT22;26682;51.660;19.338;2023-12-20T07:02:48;4.90;99.90
40952;DHT22;26682;51.660;19.338;2023-12-20T07:05:30;4.90;99.90
40952;DHT22;26682;51.660;19.338;2023-12-20T07:08:13;4.90;99.90
40952;DHT22;26682;51.660;19.338;2023-12-20T07:10:56;4.90;99.90
40952;DHT22;26682;51.660;19.338;2023-12-20T07:13:40;4.90;99.90
40952;DHT22;26682;51.660;19.338;2023-12-20T07:16:22;5.00;99.90
40952;DHT22;26682;51.660;19.338;2023-12-20T07:19:05;5.00;99.90
40952;DHT22;26682;51.660;19.338;2023-12-20T07:21:47;4.90;99.90
40952;DHT22;26682;51.660;19.338;2023-12-20T07:24:30;5.00;99.90
40952;DHT22;26682;51.660;19.338;2023-12-20T07:27:12;5.00;99.90
40952;DHT22;26682;51.660;19.338;2023-12-20T07:29:55;5.00;99.90
40952;DHT22;26682;51.660;19.338;2023-12-20T07:32:37;5.00;99.90
40952;DHT22;26682;51.660;19.338;2023-12-20T07:35:20;5.00;99.90
40952;DHT22;26682;51.660;19.338;2023-12-20T07:38:03;5.00;99.90
40952;DHT22;26682;51.660;19.338;2023-12-20T07:40:45;5.00;99.90
40952;DHT22;26682;51.660;19.338;2023-12-20T07:43:28;5.00;99.90
40952;DHT22;26682;51.660;19.338;2023-12-20T07:46:11;5.00;99.90
40952;DHT22;26682;51.660;19.338;2023-12-20T07:48:53;5.00;99.90
40952;DHT22;26682;51.660;19.338;2023-12-20T07:51:36;5.00;99.90
40952;DHT22;26682;51.660;19.338;2023-12-20T07:54:18;5.00;99.90
40952;DHT22;26682;51.660;19.338;2023-12-20T07:57:01;5.00;99.90
40952;DHT22;26682;51.660;19.338;2023-12-20T07:59:43;5.10;99.90
40952;DHT22;26682;51.660;19.338;2023-12-20T08:02:26;5.10;99.90
40952;DHT22;26682;51.660;19.338;2023-12-20T08:05:09;5.10;99.90
40952;DHT22;26682;51.660;19.338;2023-12-20T08:07:52;5.10;99.90
40952;DHT22;26682;51.660;19.338;2023-12-20T08:10:34;5.10;99.90
40952;DHT22;26682;51.660;19.338;2023-12-20T08:13:17;5.10;99.90
40952;DHT22;26682;51.660;19.338;2023-12-20T08:16:00;5.10;99.90
40952;DHT22;26682;51.660;19.338;2023-12-20T08:18:47;5.10;99.90
40952;DHT22;26682;51.660;19.338;2023-12-20T08:21:30;5.10;99.90
40952;DHT22;26682;51.660;19.338;2023-12-20T08:24:15;5.10;99.90
40952;DHT22;26682;51.660;19.338;2023-12-20T08:26:58;5.10;99.90
40952;DHT22;26682;51.660;19.338;2023-12-20T08:29:40;5.10;99.90
40952;DHT22;26682;51.660;19.338;2023-12-20T08:32:26;5.10;99.90
40952;DHT22;26682;51.660;19.338;2023-12-20T08:35:09;5.10;99.90
40952;DHT22;26682;51.660;19.338;2023-12-20T08:37:51;5.10;99.90
40952;DHT22;26682;51.660;19.338;2023-12-20T08:40:34;5.10;99.90
40952;DHT22;26682;51.660;19.338;2023-12-20T08:43:17;5.10;99.90
40952;DHT22;26682;51.660;19.338;2023-12-20T08:46:00;5.10;99.90
40952;DHT22;26682;51.660;19.338;2023-12-20T08:48:42;5.20;99.90
40952;DHT22;26682;51.660;19.338;2023-12-20T08:51:25;5.10;99.90
40952;DHT22;26682;51.660;19.338;2023-12-20T08:54:07;5.20;99.90
40952;DHT22;26682;51.660;19.338;2023-12-20T08:56:50;5.20;99.90
40952;DHT22;26682;51.660;19.338;2023-12-20T08:59:33;5.20;99.90
40952;DHT22;26682;51.660;19.338;2023-12-20T09:02:18;5.20;99.90
40952;DHT22;26682;51.660;19.338;2023-12-20T09:05:01;5.20;99.90
40952;DHT22;26682;51.660;19.338;2023-12-20T09:07:44;5.20;99.90
40952;DHT22;26682;51.660;19.338;2023-12-20T09:10:29;5.20;99.90
40952;DHT22;26682;51.660;19.338;2023-12-20T09:13:12;5.30;99.90
40952;DHT22;26682;51.660;19.338;2023-12-20T09:15:55;5.30;99.90
40952;DHT22;26682;51.660;19.338;2023-12-20T09:18:38;5.30;99.90
40952;DHT22;26682;51.660;19.338;2023-12-20T09:21:24;5.30;99.90
40952;DHT22;26682;51.660;19.338;2023-12-20T09:24:11;5.30;99.90
40952;DHT22;26682;51.660;19.338;2023-12-20T09:26:54;5.30;99.90
40952;DHT22;26682;51.660;19.338;2023-12-20T09:29:36;5.30;99.90
40952;DHT22;26682;51.660;19.338;2023-12-20T09:32:18;5.30;99.90
40952;DHT22;26682;51.660;19.338;2023-12-20T09:35:02;5.30;99.90
40952;DHT22;26682;51.660;19.338;2023-12-20T09:37:48;5.30;99.90
40952;DHT22;26682;51.660;19.338;2023-12-20T09:40:32;5.30;99.90
40952;DHT22;26682;51.660;19.338;2023-12-20T09:43:19;5.30;99.90
40952;DHT22;26682;51.660;19.338;2023-12-20T09:46:06;5.30;99.90
40952;DHT22;26682;51.660;19.338;2023-12-20T09:48:50;5.30;99.90
40952;DHT22;26682;51.660;19.338;2023-12-20T09:51:33;5.30;99.90
40952;DHT22;26682;51.660;19.338;2023-12-20T09:54:17;5.30;99.90
40952;DHT22;26682;51.660;19.338;2023-12-20T09:57:00;5.30;99.90
40952;DHT22;26682;51.660;19.338;2023-12-20T09:59:42;5.30;99.90
40952;DHT22;26682;51.660;19.338;2023-12-20T10:02:25;5.30;99.90
40952;DHT22;26682;51.660;19.338;2023-12-20T10:05:16;5.40;99.90
40952;DHT22;26682;51.660;19.338;2023-12-20T10:08:01;5.40;99.90
40952;DHT22;26682;51.660;19.338;2023-12-20T10:10:45;5.30;99.90
40952;DHT22;26682;51.660;19.338;2023-12-20T10:13:30;5.40;99.90
40952;DHT22;26682;51.660;19.338;2023-12-20T10:16:12;5.40;99.90
40952;DHT22;26682;51.660;19.338;2023-12-20T10:18:55;5.30;99.90
40952;DHT22;26682;51.660;19.338;2023-12-20T10:21:38;5.30;99.90
40952;DHT22;26682;51.660;19.338;2023-12-20T10:24:21;5.40;99.90
40952;DHT22;26682;51.660;19.338;2023-12-20T10:27:07;5.40;99.90
40952;DHT22;26682;51.660;19.338;2023-12-20T10:29:50;5.40;99.90
40952;DHT22;26682;51.660;19.338;2023-12-20T10:32:32;5.40;99.90
40952;DHT22;26682;51.660;19.338;2023-12-20T10:35:15;5.40;99.90
40952;DHT22;26682;51.660;19.338;2023-12-20T10:37:58;5.40;99.90
40952;DHT22;26682;51.660;19.338;2023-12-20T10:40:42;5.40;99.90
40952;DHT22;26682;51.660;19.338;2023-12-20T10:43:28;5.30;99.90
40952;DHT22;26682;51.660;19.338;2023-12-20T10:46:13;5.30;99.90
40952;DHT22;26682;51.660;19.338;2023-12-20T10:48:56;5.30;99.90
40952;DHT22;26682;51.660;19.338;2023-12-20T10:51:40;5.30;99.90
40952;DHT22;26682;51.660;19.338;2023-12-20T10:54:23;5.30;99.90
40952;DHT22;26682;51.660;19.338;2023-12-20T10:57:06;5.30;99.90
40952;DHT22;26682;51.660;19.338;2023-12-20T10:59:49;5.30;99.90
40952;DHT22;26682;51.660;19.338;2023-12-20T11:02:36;5.30;99.90
40952;DHT22;26682;51.660;19.338;2023-12-20T11:05:33;5.30;99.90
40952;DHT22;26682;51.660;19.338;2023-12-20T11:08:49;5.30;99.90
40952;DHT22;26682;51.660;19.338;2023-12-20T11:14:51;5.30;99.90
40952;DHT22;26682;51.660;19.338;2023-12-20T11:17:34;5.30;99.90
40952;DHT22;26682;51.660;19.338;2023-12-20T11:20:16;5.30;99.90
40952;DHT22;26682;51.660;19.338;2023-12-20T11:22:59;5.30;99.90
40952;DHT22;26682;51.660;19.338;2023-12-20T11:25:56;5.30;99.90
40952;DHT22;26682;51.660;19.338;2023-12-20T11:28:40;5.20;99.90
40952;DHT22;26682;51.660;19.338;2023-12-20T11:31:23;5.30;99.90
40952;DHT22;26682;51.660;19.338;2023-12-20T11:34:17;5.40;99.90
40952;DHT22;26682;51.660;19.338;2023-12-20T11:37:02;5.40;99.90
40952;DHT22;26682;51.660;19.338;2023-12-20T11:39:45;5.30;99.90
40952;DHT22;26682;51.660;19.338;2023-12-20T11:42:27;5.30;99.90
40952;DHT22;26682;51.660;19.338;2023-12-20T11:45:15;5.40;99.90
40952;DHT22;26682;51.660;19.338;2023-12-20T11:47:58;5.40;99.90
40952;DHT22;26682;51.660;19.338;2023-12-20T11:50:40;5.40;99.90
40952;DHT22;26682;51.660;19.338;2023-12-20T11:53:23;5.30;99.90
40952;DHT22;26682;51.660;19.338;2023-12-20T11:56:06;5.40;99.90
40952;DHT22;26682;51.660;19.338;2023-12-20T11:58:49;5.30;99.90
40952;DHT22;26682;51.660;19.338;2023-12-20T12:01:32;5.30;99.90
40952;DHT22;26682;51.660;19.338;2023-12-20T12:04:15;5.30;99.90
40952;DHT22;26682;51.660;19.338;2023-12-20T12:07:00;5.30;99.90
40952;DHT22;26682;51.660;19.338;2023-12-20T12:09:43;5.30;99.90
40952;DHT22;26682;51.660;19.338;2023-12-20T12:12:26;5.30;99.90
40952;DHT22;26682;51.660;19.338;2023-12-20T12:15:09;5.30;99.90
40952;DHT22;26682;51.660;19.338;2023-12-20T12:17:56;5.30;99.90
40952;DHT22;26682;51.660;19.338;2023-12-20T12:20:38;5.30;99.90
40952;DHT22;26682;51.660;19.338;2023-12-20T12:23:24;5.30;99.90
40952;DHT22;26682;51.660;19.338;2023-12-20T12:26:07;5.30;99.90
40952;DHT22;26682;51.660;19.338;2023-12-20T12:28:50;5.30;99.90
40952;DHT22;26682;51.660;19.338;2023-12-20T12:31:33;5.30;99.90
40952;DHT22;26682;51.660;19.338;2023-12-20T12:34:16;5.30;99.90
40952;DHT22;26682;51.660;19.338;2023-12-20T12:37:00;5.20;99.90
40952;DHT22;26682;51.660;19.338;2023-12-20T12:39:43;5.20;99.90
40952;DHT22;26682;51.660;19.338;2023-12-20T12:42:26;5.20;99.90
40952;DHT22;26682;51.660;19.338;2023-12-20T12:45:11;5.20;99.90
40952;DHT22;26682;51.660;19.338;2023-12-20T12:47:54;5.20;99.90
40952;DHT22;26682;51.660;19.338;2023-12-20T12:50:37;5.20;99.90
40952;DHT22;26682;51.660;19.338;2023-12-20T12:53:20;5.10;99.90
40952;DHT22;26682;51.660;19.338;2023-12-20T12:56:02;5.10;99.90
40952;DHT22;26682;51.660;19.338;2023-12-20T12:58:48;5.10;99.90
40952;DHT22;26682;51.660;19.338;2023-12-20T13:01:30;5.10;99.90
40952;DHT22;26682;51.660;19.338;2023-12-20T13:04:13;5.10;99.90
40952;DHT22;26682;51.660;19.338;2023-12-20T13:06:55;5.10;99.90
40952;DHT22;26682;51.660;19.338;2023-12-20T13:09:40;5.10;99.90
40952;DHT22;26682;51.660;19.338;2023-12-20T13:12:22;5.10;99.90
40952;DHT22;26682;51.660;19.338;2023-12-20T13:15:05;5.10;99.90
40952;DHT22;26682;51.660;19.338;2023-12-20T13:17:48;5.10;99.90
40952;DHT22;26682;51.660;19.338;2023-12-20T13:20:31;5.10;99.90
40952;DHT22;26682;51.660;19.338;2023-12-20T13:23:14;5.10;99.90
40952;DHT22;26682;51.660;19.338;2023-12-20T13:25:56;5.10;99.90
40952;DHT22;26682;51.660;19.338;2023-12-20T13:28:39;5.10;99.90
40952;DHT22;26682;51.660;19.338;2023-12-20T13:31:21;5.10;99.90
40952;DHT22;26682;51.660;19.338;2023-12-20T13:34:04;5.00;99.90
40952;DHT22;26682;51.660;19.338;2023-12-20T13:36:47;5.00;99.90
40952;DHT22;26682;51.660;19.338;2023-12-20T13:39:32;5.00;99.90
40952;DHT22;26682;51.660;19.338;2023-12-20T13:42:15;5.00;99.90
40952;DHT22;26682;51.660;19.338;2023-12-20T13:44:58;5.00;99.90
40952;DHT22;26682;51.660;19.338;2023-12-20T13:47:40;5.00;99.90
40952;DHT22;26682;51.660;19.338;2023-12-20T13:50:23;4.90;99.90
40952;DHT22;26682;51.660;19.338;2023-12-20T13:53:06;4.90;99.90
40952;DHT22;26682;51.660;19.338;2023-12-20T13:55:49;5.00;99.90
40952;DHT22;26682;51.660;19.338;2023-12-20T13:58:32;5.00;99.90
40952;DHT22;26682;51.660;19.338;2023-12-20T14:01:17;5.00;99.90
40952;DHT22;26682;51.660;19.338;2023-12-20T14:04:00;5.00;99.90
40952;DHT22;26682;51.660;19.338;2023-12-20T14:06:43;5.00;99.90
40952;DHT22;26682;51.660;19.338;2023-12-20T14:09:26;5.00;99.90
40952;DHT22;26682;51.660;19.338;2023-12-20T14:12:08;5.00;99.90
40952;DHT22;26682;51.660;19.338;2023-12-20T14:14:51;5.00;99.90
40952;DHT22;26682;51.660;19.338;2023-12-20T14:17:33;4.90;99.90
40952;DHT22;26682;51.660;19.338;2023-12-20T14:20:16;4.90;99.90
40952;DHT22;26682;51.660;19.338;2023-12-20T14:22:59;4.90;99.90
40952;DHT22;26682;51.660;19.338;2023-12-20T14:25:42;4.90;99.90
40952;DHT22;26682;51.660;19.338;2023-12-20T14:28:33;4.90;99.90
40952;DHT22;26682;51.660;19.338;2023-12-20T14:31:16;4.90;99.90
40952;DHT22;26682;51.660;19.338;2023-12-20T14:33:58;4.90;99.90
40952;DHT22;26682;51.660;19.338;2023-12-20T14:36:42;4.80;99.90
40952;DHT22;26682;51.660;19.338;2023-12-20T14:39:24;4.80;99.90
40952;DHT22;26682;51.660;19.338;2023-12-20T14:42:10;4.80;99.90
40952;DHT22;26682;51.660;19.338;2023-12-20T14:44:55;4.70;99.90
40952;DHT22;26682;51.660;19.338;2023-12-20T14:47:38;4.70;99.90
40952;DHT22;26682;51.660;19.338;2023-12-20T14:50:21;4.70;99.90
40952;DHT22;26682;51.660;19.338;2023-12-20T14:53:04;4.70;99.90
40952;DHT22;26682;51.660;19.338;2023-12-20T14:55:47;4.70;99.90
40952;DHT22;26682;51.660;19.338;2023-12-20T14:58:31;4.70;99.90
40952;DHT22;26682;51.660;19.338;2023-12-20T15:01:14;4.70;99.90
40952;DHT22;26682;51.660;19.338;2023-12-20T15:03:57;4.70;99.90
40952;DHT22;26682;51.660;19.338;2023-12-20T15:06:40;4.70;99.90
40952;DHT22;26682;51.660;19.338;2023-12-20T15:09:23;4.70;99.90
40952;DHT22;26682;51.660;19.338;2023-12-20T15:12:07;4.70;99.90
40952;DHT22;26682;51.660;19.338;2023-12-20T15:14:50;4.70;99.90
40952;DHT22;26682;51.660;19.338;2023-12-20T15:17:32;4.60;99.90
40952;DHT22;26682;51.660;19.338;2023-12-20T15:20:15;4.60;99.90
40952;DHT22;26682;51.660;19.338;2023-12-20T15:22:58;4.60;99.90
40952;DHT22;26682;51.660;19.338;2023-12-20T15:25:47;4.60;99.90
40952;DHT22;26682;51.660;19.338;2023-12-20T15:28:30;4.60;99.90
40952;DHT22;26682;51.660;19.338;2023-12-20T15:31:13;4.70;99.90
40952;DHT22;26682;51.660;19.338;2023-12-20T15:33:55;4.60;99.90
40952;DHT22;26682;51.660;19.338;2023-12-20T15:36:38;4.60;99.90
40952;DHT22;26682;51.660;19.338;2023-12-20T15:39:24;4.50;99.90
40952;DHT22;26682;51.660;19.338;2023-12-20T15:42:06;4.50;99.90
40952;DHT22;26682;51.660;19.338;2023-12-20T15:44:48;4.50;99.90
40952;DHT22;26682;51.660;19.338;2023-12-20T15:47:31;4.50;99.90
40952;DHT22;26682;51.660;19.338;2023-12-20T15:50:14;4.60;99.90
40952;DHT22;26682;51.660;19.338;2023-12-20T15:52:57;4.50;99.90
40952;DHT22;26682;51.660;19.338;2023-12-20T15:55:39;4.50;99.90
40952;DHT22;26682;51.660;19.338;2023-12-20T15:58:22;4.50;99.90
40952;DHT22;26682;51.660;19.338;2023-12-20T16:01:05;4.50;99.90
40952;DHT22;26682;51.660;19.338;2023-12-20T16:03:47;4.60;99.90
40952;DHT22;26682;51.660;19.338;2023-12-20T16:06:39;4.50;99.90
40952;DHT22;26682;51.660;19.338;2023-12-20T16:09:22;4.50;99.90
40952;DHT22;26682;51.660;19.338;2023-12-20T16:12:05;4.50;99.90
40952;DHT22;26682;51.660;19.338;2023-12-20T16:14:48;4.40;99.90
40952;DHT22;26682;51.660;19.338;2023-12-20T16:17:30;4.40;99.90
40952;DHT22;26682;51.660;19.338;2023-12-20T16:20:13;4.30;99.90
40952;DHT22;26682;51.660;19.338;2023-12-20T16:22:56;4.30;99.90
40952;DHT22;26682;51.660;19.338;2023-12-20T16:25:38;4.30;99.90
40952;DHT22;26682;51.660;19.338;2023-12-20T16:28:21;4.40;99.90
40952;DHT22;26682;51.660;19.338;2023-12-20T16:31:05;4.30;99.90
40952;DHT22;26682;51.660;19.338;2023-12-20T16:33:47;4.30;99.90
40952;DHT22;26682;51.660;19.338;2023-12-20T16:36:48;4.30;99.90
40952;DHT22;26682;51.660;19.338;2023-12-20T16:39:31;4.30;99.90
40952;DHT22;26682;51.660;19.338;2023-12-20T16:42:15;4.40;99.90
40952;DHT22;26682;51.660;19.338;2023-12-20T16:44:57;4.30;99.90
40952;DHT22;26682;51.660;19.338;2023-12-20T16:47:40;4.40;99.90
40952;DHT22;26682;51.660;19.338;2023-12-20T16:50:22;4.30;99.90
40952;DHT22;26682;51.660;19.338;2023-12-20T16:53:08;4.40;99.90
40952;DHT22;26682;51.660;19.338;2023-12-20T16:55:50;4.40;99.90
40952;DHT22;26682;51.660;19.338;2023-12-20T16:58:33;4.40;99.90
40952;DHT22;26682;51.660;19.338;2023-12-20T17:01:15;4.40;99.90
40952;DHT22;26682;51.660;19.338;2023-12-20T17:03:59;4.40;99.90
40952;DHT22;26682;51.660;19.338;2023-12-20T17:06:43;4.40;99.90
40952;DHT22;26682;51.660;19.338;2023-12-20T17:09:26;4.50;99.90
40952;DHT22;26682;51.660;19.338;2023-12-20T17:12:15;4.50;99.90
40952;DHT22;26682;51.660;19.338;2023-12-20T17:14:57;4.50;99.90